createdAt,value
2022-10-15T00:00:03.169Z,985.47
2022-10-15T00:01:03.173Z,985.44
2022-10-15T00:02:03.143Z,985.51
2022-10-15T00:03:03.140Z,985.44
2022-10-15T00:04:03.130Z,985.44
2022-10-15T00:05:03.136Z,985.41
2022-10-15T00:06:03.117Z,985.47
2022-10-15T00:07:03.117Z,985.46
2022-10-15T00:08:03.108Z,985.48
2022-10-15T00:09:03.100Z,985.40
2022-10-15T00:10:03.104Z,985.42
2022-10-15T00:11:03.092Z,985.42
2022-10-15T00:12:03.087Z,985.39
2022-10-15T00:14:04.064Z,985.40
2022-10-15T00:15:03.063Z,985.33
2022-10-15T00:16:03.067Z,985.37
2022-10-15T00:17:03.048Z,985.31
2022-10-15T00:18:03.040Z,985.35
2022-10-15T00:19:03.388Z,985.25
2022-10-15T00:20:03.027Z,985.37
2022-10-15T00:21:03.045Z,985.38
2022-10-15T00:22:03.016Z,985.38
2022-10-15T00:23:03.012Z,985.34
2022-10-15T00:24:02.995Z,985.31
2022-10-15T00:25:02.991Z,985.28
2022-10-15T00:26:03.003Z,985.28
2022-10-15T00:27:02.983Z,985.24
2022-10-15T00:28:02.968Z,985.31
2022-10-15T00:29:03.004Z,985.34
2022-10-15T00:30:02.969Z,985.37
2022-10-15T00:32:02.972Z,985.31
2022-10-15T00:33:02.927Z,985.30
2022-10-15T00:34:02.954Z,985.36
2022-10-15T00:35:02.929Z,985.35
2022-10-15T00:36:02.919Z,985.39
2022-10-15T00:37:02.930Z,985.39
2022-10-15T00:38:02.928Z,985.28
2022-10-15T00:39:02.906Z,985.26
2022-10-15T00:41:03.982Z,985.34
2022-10-15T00:42:02.883Z,985.38
2022-10-15T00:43:02.860Z,985.33
2022-10-15T00:44:03.871Z,985.35
2022-10-15T00:45:02.859Z,985.34
2022-10-15T00:46:02.863Z,985.27
2022-10-15T00:47:02.847Z,985.33
2022-10-15T00:48:02.849Z,985.28
2022-10-15T00:50:02.840Z,985.38
2022-10-15T00:51:02.817Z,985.32
2022-10-15T00:52:02.826Z,985.37
2022-10-15T00:53:02.816Z,985.38
2022-10-15T00:54:02.799Z,985.23
2022-10-15T00:55:02.790Z,985.34
2022-10-15T00:56:02.791Z,985.37
2022-10-15T00:57:02.782Z,985.34
2022-10-15T00:58:02.903Z,985.24
2022-10-15T00:59:02.769Z,985.30
2022-10-15T01:00:02.763Z,985.27
2022-10-15T01:01:02.770Z,985.27
2022-10-15T01:02:02.754Z,985.22
2022-10-15T01:03:02.752Z,985.21
2022-10-15T01:04:02.740Z,985.27
2022-10-15T01:05:02.732Z,985.19
2022-10-15T01:06:02.726Z,985.16
2022-10-15T01:07:02.715Z,985.16
2022-10-15T01:08:02.723Z,985.05
2022-10-15T01:09:02.698Z,985.06
2022-10-15T01:10:02.694Z,985.11
2022-10-15T01:11:02.695Z,985.09
2022-10-15T01:12:02.684Z,985.09
2022-10-15T01:13:02.691Z,985.05
2022-10-15T01:14:02.675Z,984.98
2022-10-15T01:15:02.723Z,985.01
2022-10-15T01:16:02.757Z,985.01
2022-10-15T01:17:02.707Z,985.01
2022-10-15T01:18:02.661Z,985.07
2022-10-15T01:19:02.636Z,985.04
2022-10-15T01:20:02.630Z,985.05
2022-10-15T01:21:03.665Z,985.01
2022-10-15T01:22:02.616Z,985.02
2022-10-15T01:23:02.615Z,985.01
2022-10-15T01:24:02.607Z,985.00
2022-10-15T01:25:02.686Z,984.92
2022-10-15T01:26:02.594Z,984.95
2022-10-15T01:27:02.591Z,984.89
2022-10-15T01:28:02.612Z,984.92
2022-10-15T01:29:02.585Z,984.95
2022-10-15T01:30:02.573Z,984.96
2022-10-15T01:31:02.563Z,984.85
2022-10-15T01:32:02.551Z,984.89
2022-10-15T01:33:02.560Z,984.84
2022-10-15T01:34:02.608Z,984.89
2022-10-15T01:35:02.525Z,984.84
2022-10-15T01:36:05.566Z,984.89
2022-10-15T01:37:03.665Z,984.86
2022-10-15T01:38:02.614Z,984.92
2022-10-15T01:39:02.523Z,984.86
2022-10-15T01:40:02.510Z,984.90
2022-10-15T01:41:02.531Z,984.89
2022-10-15T01:42:02.499Z,984.94
2022-10-15T01:43:02.502Z,984.94
2022-10-15T01:44:02.481Z,984.91
2022-10-15T01:45:02.476Z,984.93
2022-10-15T01:46:03.470Z,984.92
2022-10-15T01:47:02.477Z,984.96
2022-10-15T01:48:02.455Z,984.93
2022-10-15T01:49:02.459Z,984.89
2022-10-15T01:50:02.467Z,984.86
2022-10-15T01:51:02.450Z,984.93
2022-10-15T01:52:02.435Z,984.88
2022-10-15T01:53:02.422Z,984.87
2022-10-15T01:54:02.422Z,984.87
2022-10-15T01:55:02.420Z,984.88
2022-10-15T01:56:02.407Z,984.87
2022-10-15T01:57:02.403Z,984.92
2022-10-15T01:58:02.403Z,984.86
2022-10-15T01:59:02.399Z,984.81
2022-10-15T02:00:02.382Z,984.77
2022-10-15T02:01:02.413Z,984.80
2022-10-15T02:02:02.382Z,984.79
2022-10-15T02:03:02.372Z,984.81
2022-10-15T02:04:02.352Z,984.82
2022-10-15T02:05:02.347Z,984.72
2022-10-15T02:06:02.354Z,984.79
2022-10-15T02:07:02.335Z,984.77
2022-10-15T02:08:02.331Z,984.81
2022-10-15T02:09:02.333Z,984.73
2022-10-15T02:10:02.319Z,984.75
2022-10-15T02:11:02.317Z,984.77
2022-10-15T02:12:02.308Z,984.70
2022-10-15T02:13:02.295Z,984.71
2022-10-15T02:14:02.294Z,984.75
2022-10-15T02:15:02.282Z,984.72
2022-10-15T02:16:02.287Z,984.68
2022-10-15T02:17:02.274Z,984.68
2022-10-15T02:18:02.263Z,984.73
2022-10-15T02:19:02.253Z,984.61
2022-10-15T02:20:02.242Z,984.69
2022-10-15T02:21:02.260Z,984.70
2022-10-15T02:22:02.236Z,984.73
2022-10-15T02:23:02.991Z,984.64
2022-10-15T02:24:02.242Z,984.70
2022-10-15T02:25:02.236Z,984.71
2022-10-15T02:26:02.238Z,984.73
2022-10-15T02:27:02.234Z,984.77
2022-10-15T02:28:02.203Z,984.74
2022-10-15T02:29:02.359Z,984.70
2022-10-15T02:30:02.196Z,984.70
2022-10-15T02:31:02.194Z,984.69
2022-10-15T02:32:02.207Z,984.65
2022-10-15T02:33:02.274Z,984.66
2022-10-15T02:34:02.172Z,984.61
2022-10-15T02:35:02.157Z,984.73
2022-10-15T02:36:02.122Z,984.57
2022-10-15T02:37:02.131Z,984.62
2022-10-15T02:38:02.223Z,984.61
2022-10-15T02:39:02.107Z,984.63
2022-10-15T02:40:02.100Z,984.63
2022-10-15T02:41:02.107Z,984.60
2022-10-15T02:42:02.085Z,984.55
2022-10-15T02:43:02.099Z,984.60
2022-10-15T02:44:02.073Z,984.60
2022-10-15T02:45:02.073Z,984.61
2022-10-15T02:46:02.063Z,984.56
2022-10-15T02:47:02.061Z,984.56
2022-10-15T02:48:02.059Z,984.56
2022-10-15T02:49:02.045Z,984.50
2022-10-15T02:50:02.051Z,984.52
2022-10-15T02:51:02.993Z,984.56
2022-10-15T02:52:02.024Z,984.55
2022-10-15T02:53:02.041Z,984.55
2022-10-15T02:54:02.006Z,984.53
2022-10-15T02:55:02.011Z,984.50
2022-10-15T02:56:02.001Z,984.53
2022-10-15T02:57:01.982Z,984.46
2022-10-15T02:58:02.001Z,984.48
2022-10-15T02:59:01.974Z,984.52
2022-10-15T03:00:02.002Z,984.52
2022-10-15T03:01:02.027Z,984.53
2022-10-15T03:02:02.496Z,984.57
2022-10-15T03:03:01.957Z,984.48
2022-10-15T03:04:01.954Z,984.50
2022-10-15T03:05:01.936Z,984.53
2022-10-15T03:06:01.946Z,984.56
2022-10-15T03:07:01.913Z,984.58
2022-10-15T03:08:01.937Z,984.57
2022-10-15T03:09:01.912Z,984.56
2022-10-15T03:10:01.917Z,984.51
2022-10-15T03:11:01.909Z,984.53
2022-10-15T03:12:01.887Z,984.50
2022-10-15T03:13:01.889Z,984.48
2022-10-15T03:14:01.873Z,984.43
2022-10-15T03:15:01.884Z,984.44
2022-10-15T03:16:01.847Z,984.45
2022-10-15T03:17:01.845Z,984.44
2022-10-15T03:18:01.877Z,984.45
2022-10-15T03:19:02.067Z,984.44
2022-10-15T03:20:01.822Z,984.39
2022-10-15T03:21:01.831Z,984.44
2022-10-15T03:22:01.825Z,984.40
2022-10-15T03:23:01.846Z,984.43
2022-10-15T03:24:01.787Z,984.41
2022-10-15T03:25:01.835Z,984.46
2022-10-15T03:26:01.792Z,984.45
2022-10-15T03:27:02.536Z,984.41
2022-10-15T03:28:02.526Z,984.41
2022-10-15T03:29:01.852Z,984.39
2022-10-15T03:30:01.839Z,984.35
2022-10-15T03:31:01.846Z,984.38
2022-10-15T03:32:01.754Z,984.36
2022-10-15T03:33:02.490Z,984.41
2022-10-15T03:34:01.887Z,984.39
2022-10-15T03:35:02.501Z,984.43
2022-10-15T03:36:01.757Z,984.41
2022-10-15T03:37:01.690Z,984.40
2022-10-15T03:38:01.693Z,984.43
2022-10-15T03:39:01.681Z,984.43
2022-10-15T03:40:01.678Z,984.40
2022-10-15T03:41:01.685Z,984.44
2022-10-15T03:42:01.677Z,984.41
2022-10-15T03:43:01.681Z,984.47
2022-10-15T03:44:01.679Z,984.40
2022-10-15T03:45:01.671Z,984.48
2022-10-15T03:46:01.658Z,984.49
2022-10-15T03:47:01.710Z,984.50
2022-10-15T03:48:01.633Z,984.49
2022-10-15T03:49:01.649Z,984.55
2022-10-15T03:50:01.621Z,984.50
2022-10-15T03:51:01.607Z,984.56
2022-10-15T03:52:01.599Z,984.50
2022-10-15T03:53:01.615Z,984.60
2022-10-15T03:54:01.590Z,984.59
2022-10-15T03:55:01.592Z,984.62
2022-10-15T03:56:01.614Z,984.67
2022-10-15T03:57:01.578Z,984.75
2022-10-15T03:58:01.607Z,984.79
2022-10-15T03:59:01.550Z,984.79
2022-10-15T04:00:01.620Z,984.76
2022-10-15T04:01:01.651Z,984.73
2022-10-15T04:02:01.563Z,984.76
2022-10-15T04:03:01.563Z,984.74
2022-10-15T04:04:01.491Z,984.74
2022-10-15T04:05:01.514Z,984.71
2022-10-15T04:06:03.395Z,984.74
2022-10-15T04:07:01.490Z,984.76
2022-10-15T04:08:01.471Z,984.75
2022-10-15T04:09:01.502Z,984.73
2022-10-15T04:10:01.458Z,984.73
2022-10-15T04:11:01.445Z,984.79
2022-10-15T04:12:01.684Z,984.83
2022-10-15T04:13:01.468Z,984.83
2022-10-15T04:14:01.438Z,984.81
2022-10-15T04:15:01.430Z,984.77
2022-10-15T04:16:01.406Z,984.74
2022-10-15T04:17:01.452Z,984.79
2022-10-15T04:18:01.434Z,984.79
2022-10-15T04:19:01.386Z,984.82
2022-10-15T04:20:01.382Z,984.80
2022-10-15T04:21:01.383Z,984.74
2022-10-15T04:22:01.373Z,984.83
2022-10-15T04:23:01.379Z,984.85
2022-10-15T04:24:01.346Z,984.89
2022-10-15T04:25:02.438Z,984.85
2022-10-15T04:26:01.348Z,984.80
2022-10-15T04:27:01.393Z,984.85
2022-10-15T04:28:01.321Z,984.82
2022-10-15T04:29:01.364Z,984.77
2022-10-15T04:30:01.318Z,984.77
2022-10-15T04:31:01.307Z,984.74
2022-10-15T04:32:01.298Z,984.71
2022-10-15T04:33:01.296Z,984.69
2022-10-15T04:34:01.300Z,984.60
2022-10-15T04:35:01.272Z,984.71
2022-10-15T04:36:01.269Z,984.67
2022-10-15T04:37:01.261Z,984.61
2022-10-15T04:38:01.262Z,984.62
2022-10-15T04:39:01.256Z,984.59
2022-10-15T04:40:01.229Z,984.61
2022-10-15T04:41:01.261Z,984.65
2022-10-15T04:42:01.264Z,984.59
2022-10-15T04:43:02.218Z,984.59
2022-10-15T04:44:01.229Z,984.55
2022-10-15T04:45:01.204Z,984.58
2022-10-15T04:46:01.214Z,984.53
2022-10-15T04:47:01.186Z,984.56
2022-10-15T04:48:01.201Z,984.58
2022-10-15T04:49:01.185Z,984.59
2022-10-15T04:50:01.229Z,984.58
2022-10-15T04:51:01.167Z,984.57
2022-10-15T04:52:01.160Z,984.57
2022-10-15T04:53:01.177Z,984.57
2022-10-15T04:54:01.168Z,984.55
2022-10-15T04:55:01.156Z,984.51
2022-10-15T04:56:01.983Z,984.57
2022-10-15T04:57:01.146Z,984.57
2022-10-15T04:58:01.982Z,984.56
2022-10-15T04:59:01.152Z,984.58
2022-10-15T05:00:01.117Z,984.58
2022-10-15T05:01:01.081Z,984.58
2022-10-15T05:02:01.199Z,984.57
2022-10-15T05:03:01.096Z,984.53
2022-10-15T05:04:01.073Z,984.57
2022-10-15T05:05:01.072Z,984.55
2022-10-15T05:06:01.103Z,984.54
2022-10-15T05:07:01.077Z,984.57
2022-10-15T05:08:01.090Z,984.52
2022-10-15T05:09:01.040Z,984.57
2022-10-15T05:10:01.092Z,984.55
2022-10-15T05:11:01.035Z,984.58
2022-10-15T05:12:01.122Z,984.60
2022-10-15T05:13:01.024Z,984.56
2022-10-15T05:14:01.110Z,984.64
2022-10-15T05:15:01.020Z,984.62
2022-10-15T05:16:01.101Z,984.65
2022-10-15T05:17:00.969Z,984.72
2022-10-15T05:18:00.956Z,984.71
2022-10-15T05:19:00.961Z,984.72
2022-10-15T05:20:00.956Z,984.75
2022-10-15T05:21:00.957Z,984.72
2022-10-15T05:22:00.937Z,984.71
2022-10-15T05:23:00.937Z,984.78
2022-10-15T05:24:00.944Z,984.80
2022-10-15T05:25:00.945Z,984.75
2022-10-15T05:26:00.908Z,984.80
2022-10-15T05:27:02.970Z,984.82
2022-10-15T05:28:00.896Z,984.83
2022-10-15T05:29:00.960Z,984.91
2022-10-15T05:30:00.876Z,984.85
2022-10-15T05:31:00.881Z,984.87
2022-10-15T05:32:00.944Z,984.87
2022-10-15T05:33:00.860Z,984.88
2022-10-15T05:34:00.857Z,984.91
2022-10-15T05:35:00.854Z,984.93
2022-10-15T05:36:00.844Z,984.89
2022-10-15T05:37:00.832Z,985.00
2022-10-15T05:38:01.846Z,985.07
2022-10-15T05:39:00.829Z,985.02
2022-10-15T05:40:00.812Z,985.00
2022-10-15T05:41:00.813Z,985.06
2022-10-15T05:42:00.821Z,985.04
2022-10-15T05:43:00.820Z,984.99
2022-10-15T05:44:00.798Z,985.01
2022-10-15T05:45:00.773Z,985.00
2022-10-15T05:46:00.782Z,985.04
2022-10-15T05:47:00.775Z,985.07
2022-10-15T05:48:00.796Z,985.08
2022-10-15T05:49:00.771Z,985.01
2022-10-15T05:50:00.780Z,985.04
2022-10-15T05:51:00.799Z,985.02
2022-10-15T05:52:00.804Z,984.98
2022-10-15T05:53:01.476Z,985.00
2022-10-15T05:54:00.807Z,984.96
2022-10-15T05:55:00.773Z,985.04
2022-10-15T05:56:00.723Z,985.00
2022-10-15T05:57:00.729Z,985.00
2022-10-15T05:58:00.696Z,985.05
2022-10-15T05:59:00.730Z,985.11
2022-10-15T06:00:00.676Z,985.05
2022-10-15T06:01:00.669Z,985.07
2022-10-15T06:02:00.752Z,985.02
2022-10-15T06:03:00.704Z,984.99
2022-10-15T06:04:00.651Z,985.00
2022-10-15T06:05:00.668Z,985.00
2022-10-15T06:06:00.640Z,985.02
2022-10-15T06:07:00.664Z,984.99
2022-10-15T06:08:00.652Z,985.00
2022-10-15T06:09:00.709Z,984.94
2022-10-15T06:10:00.648Z,984.91
2022-10-15T06:11:02.799Z,984.84
2022-10-15T06:12:00.608Z,984.82
2022-10-15T06:13:00.592Z,984.76
2022-10-15T06:14:00.643Z,984.84
2022-10-15T06:15:00.572Z,984.87
2022-10-15T06:16:00.574Z,984.87
2022-10-15T06:17:00.585Z,984.87
2022-10-15T06:18:00.546Z,984.88
2022-10-15T06:19:00.565Z,984.86
2022-10-15T06:20:00.549Z,984.85
2022-10-15T06:21:00.525Z,984.88
2022-10-15T06:22:00.526Z,984.87
2022-10-15T06:23:00.516Z,984.88
2022-10-15T06:24:00.505Z,984.89
2022-10-15T06:25:00.530Z,984.86
2022-10-15T06:26:00.510Z,984.90
2022-10-15T06:27:00.481Z,984.94
2022-10-15T06:28:00.497Z,984.93
2022-10-15T06:29:00.522Z,985.00
2022-10-15T06:30:00.484Z,984.94
2022-10-15T06:31:00.472Z,985.04
2022-10-15T06:32:00.462Z,984.98
2022-10-15T06:33:00.587Z,985.02
2022-10-15T06:34:00.445Z,985.06
2022-10-15T06:35:00.439Z,985.08
2022-10-15T06:36:00.433Z,985.10
2022-10-15T06:37:00.422Z,985.13
2022-10-15T06:38:02.975Z,985.16
2022-10-15T06:39:00.401Z,985.21
2022-10-15T06:40:00.405Z,985.21
2022-10-15T06:41:00.392Z,985.25
2022-10-15T06:42:00.390Z,985.33
2022-10-15T06:43:00.371Z,985.41
2022-10-15T06:44:00.375Z,985.35
2022-10-15T06:45:00.380Z,985.44
2022-10-15T06:46:00.343Z,985.44
2022-10-15T06:47:00.366Z,985.49
2022-10-15T06:48:00.340Z,985.48
2022-10-15T06:49:00.333Z,985.54
2022-10-15T06:50:00.331Z,985.52
2022-10-15T06:51:00.336Z,985.54
2022-10-15T06:52:03.505Z,985.61
2022-10-15T06:53:01.002Z,985.56
2022-10-15T06:54:00.295Z,985.63
2022-10-15T06:55:00.289Z,985.62
2022-10-15T06:56:00.300Z,985.61
2022-10-15T06:57:00.324Z,985.60
2022-10-15T06:58:00.305Z,985.62
2022-10-15T06:59:00.284Z,985.57
2022-10-15T07:00:00.269Z,985.63
2022-10-15T07:01:00.275Z,985.70
2022-10-15T07:02:00.295Z,985.72
2022-10-15T07:03:00.262Z,985.78
2022-10-15T07:04:00.241Z,985.79
2022-10-15T07:05:00.290Z,985.76
2022-10-15T07:06:00.216Z,985.75
2022-10-15T07:07:00.206Z,985.73
2022-10-15T07:08:00.211Z,985.74
2022-10-15T07:09:00.202Z,985.71
2022-10-15T07:10:00.220Z,985.76
2022-10-15T07:11:00.173Z,985.73
2022-10-15T07:12:00.168Z,985.77
2022-10-15T07:13:00.196Z,985.76
2022-10-15T07:14:00.222Z,985.79
2022-10-15T07:15:00.174Z,985.84
2022-10-15T07:16:00.178Z,985.86
2022-10-15T07:17:00.171Z,985.84
2022-10-15T07:18:00.164Z,985.88
2022-10-15T07:19:00.163Z,985.85
2022-10-15T07:20:00.120Z,985.79
2022-10-15T07:21:00.205Z,985.78
2022-10-15T07:22:00.102Z,985.76
2022-10-15T07:23:00.116Z,985.75
2022-10-15T07:24:00.122Z,985.69
2022-10-15T07:25:00.097Z,985.78
2022-10-15T07:26:00.081Z,985.82
2022-10-15T07:27:02.720Z,985.82
2022-10-15T07:28:02.069Z,985.86
2022-10-15T07:29:00.171Z,985.82
2022-10-15T07:30:00.089Z,985.85
2022-10-15T07:31:00.044Z,985.79
2022-10-15T07:32:00.033Z,985.74
2022-10-15T07:33:00.041Z,985.74
2022-10-15T07:34:00.029Z,985.64
2022-10-15T07:35:00.010Z,985.63
2022-10-15T07:36:00.014Z,985.67
2022-10-15T07:36:59.998Z,985.63
2022-10-15T07:37:59.989Z,985.53
2022-10-15T07:38:59.985Z,985.61
2022-10-15T07:39:59.993Z,985.61
2022-10-15T07:40:59.958Z,985.67
2022-10-15T07:41:59.998Z,985.64
2022-10-15T07:42:59.954Z,985.65
2022-10-15T07:43:59.937Z,985.63
2022-10-15T07:44:59.971Z,985.71
2022-10-15T07:45:59.940Z,985.68
2022-10-15T07:46:59.917Z,985.72
2022-10-15T07:47:59.921Z,985.81
2022-10-15T07:48:59.916Z,985.82
2022-10-15T07:49:59.921Z,985.85
2022-10-15T07:50:59.898Z,985.82
2022-10-15T07:52:00.461Z,985.87
2022-10-15T07:52:59.877Z,985.91
2022-10-15T07:53:59.890Z,985.89
2022-10-15T07:54:59.865Z,985.88
2022-10-15T07:55:59.894Z,985.84
2022-10-15T07:56:59.862Z,985.99
2022-10-15T07:57:59.874Z,986.00
2022-10-15T07:58:59.865Z,986.00
2022-10-15T07:59:59.862Z,986.02
2022-10-15T08:00:59.861Z,986.08
2022-10-15T08:01:59.815Z,986.04
2022-10-15T08:03:00.813Z,986.02
2022-10-15T08:03:59.806Z,985.99
2022-10-15T08:04:59.806Z,986.07
2022-10-15T08:05:59.845Z,986.06
2022-10-15T08:06:59.785Z,986.06
2022-10-15T08:07:59.793Z,986.09
2022-10-15T08:08:59.769Z,986.11
2022-10-15T08:09:59.771Z,986.09
2022-10-15T08:10:59.761Z,986.12
2022-10-15T08:11:59.785Z,986.05
2022-10-15T08:12:59.741Z,986.08
2022-10-15T08:13:59.805Z,986.18
2022-10-15T08:14:59.797Z,986.20
2022-10-15T08:16:00.343Z,986.10
2022-10-15T08:16:59.717Z,986.16
2022-10-15T08:17:59.717Z,986.10
2022-10-15T08:18:59.744Z,986.15
2022-10-15T08:19:59.730Z,986.14
2022-10-15T08:20:59.709Z,986.13
2022-10-15T08:21:59.769Z,986.10
2022-10-15T08:22:59.693Z,986.15
2022-10-15T08:23:59.681Z,986.14
2022-10-15T08:24:59.657Z,986.17
2022-10-15T08:25:59.643Z,986.08
2022-10-15T08:26:59.766Z,986.03
2022-10-15T08:27:59.665Z,986.20
2022-10-15T08:28:59.685Z,986.11
2022-10-15T08:29:59.621Z,986.09
2022-10-15T08:31:04.209Z,986.03
2022-10-15T08:32:00.677Z,986.10
2022-10-15T08:32:59.594Z,986.17
2022-10-15T08:33:59.597Z,986.07
2022-10-15T08:34:59.590Z,986.07
2022-10-15T08:35:59.581Z,986.04
2022-10-15T08:36:59.589Z,985.97
2022-10-15T08:37:59.586Z,985.96
2022-10-15T08:38:59.560Z,986.01
2022-10-15T08:40:00.560Z,985.92
2022-10-15T08:40:59.554Z,986.03
2022-10-15T08:41:59.539Z,986.20
2022-10-15T08:42:59.551Z,986.25
2022-10-15T08:43:59.528Z,986.18
2022-10-15T08:44:59.542Z,986.12
2022-10-15T08:45:59.508Z,986.16
2022-10-15T08:46:59.508Z,986.16
2022-10-15T08:47:59.507Z,986.15
2022-10-15T08:48:59.482Z,986.08
2022-10-15T08:49:59.490Z,986.03
2022-10-15T08:50:59.470Z,986.01
2022-10-15T08:51:59.471Z,986.02
2022-10-15T08:52:59.482Z,985.99
2022-10-15T08:53:59.459Z,985.96
2022-10-15T08:54:59.478Z,985.95
2022-10-15T08:55:59.497Z,986.12
2022-10-15T08:56:59.494Z,986.05
2022-10-15T08:57:59.487Z,985.98
2022-10-15T08:58:59.962Z,985.89
2022-10-15T08:59:59.479Z,985.94
2022-10-15T09:00:59.468Z,985.62
2022-10-15T09:01:59.410Z,985.85
2022-10-15T09:02:59.448Z,985.52
2022-10-15T09:03:59.400Z,985.86
2022-10-15T09:04:59.407Z,985.85
2022-10-15T09:05:59.414Z,985.85
2022-10-15T09:06:59.999Z,985.80
2022-10-15T09:07:59.414Z,985.90
2022-10-15T09:08:59.367Z,985.99
2022-10-15T09:09:59.394Z,985.88
2022-10-15T09:10:59.352Z,985.91
2022-10-15T09:11:59.347Z,986.01
2022-10-15T09:12:59.354Z,985.96
2022-10-15T09:13:59.883Z,985.84
2022-10-15T09:14:59.346Z,985.90
2022-10-15T09:15:59.335Z,985.93
2022-10-15T09:16:59.337Z,985.77
2022-10-15T09:17:59.345Z,985.83
2022-10-15T09:18:59.379Z,985.69
2022-10-15T09:19:59.578Z,985.74
2022-10-15T09:20:59.449Z,985.77
2022-10-15T09:21:59.338Z,985.84
2022-10-15T09:22:59.402Z,985.74
2022-10-15T09:23:59.303Z,985.64
2022-10-15T09:24:59.271Z,985.66
2022-10-15T09:25:59.307Z,985.59
2022-10-15T09:26:59.257Z,985.42
2022-10-15T09:27:59.251Z,985.69
2022-10-15T09:28:59.322Z,985.35
2022-10-15T09:29:59.233Z,985.40
2022-10-15T09:30:59.223Z,985.55
2022-10-15T09:31:59.230Z,985.71
2022-10-15T09:32:59.218Z,985.68
2022-10-15T09:33:59.229Z,985.63
2022-10-15T09:34:59.206Z,985.66
2022-10-15T09:35:59.196Z,985.56
2022-10-15T09:36:59.186Z,985.35
2022-10-15T09:38:03.458Z,985.31
2022-10-15T09:39:01.190Z,985.30
2022-10-15T09:39:59.180Z,985.34
2022-10-15T09:40:59.190Z,985.29
2022-10-15T09:41:59.162Z,985.38
2022-10-15T09:42:59.142Z,985.46
2022-10-15T09:43:59.162Z,985.36
2022-10-15T09:44:59.135Z,985.43
2022-10-15T09:45:59.130Z,985.50
2022-10-15T09:46:59.130Z,985.55
2022-10-15T09:47:59.115Z,985.48
2022-10-15T09:48:59.140Z,985.58
2022-10-15T09:49:59.102Z,985.51
2022-10-15T09:50:59.105Z,985.66
2022-10-15T09:51:59.094Z,985.54
2022-10-15T09:52:59.078Z,985.63
2022-10-15T09:53:59.086Z,985.56
2022-10-15T09:54:59.087Z,985.64
2022-10-15T09:55:59.058Z,985.53
2022-10-15T09:56:59.072Z,985.53
2022-10-15T09:57:59.065Z,985.51
2022-10-15T09:58:59.083Z,985.54
2022-10-15T09:59:59.048Z,985.67
2022-10-15T10:00:59.031Z,985.54
2022-10-15T10:02:00.055Z,985.58
2022-10-15T10:02:59.028Z,985.66
2022-10-15T10:03:59.024Z,985.71
2022-10-15T10:04:59.071Z,985.65
2022-10-15T10:05:59.011Z,985.63
2022-10-15T10:06:59.022Z,985.62
2022-10-15T10:07:59.030Z,985.56
2022-10-15T10:08:59.006Z,985.56
2022-10-15T10:09:59.005Z,985.51
2022-10-15T10:10:59.023Z,985.61
2022-10-15T10:11:59.002Z,985.52
2022-10-15T10:12:59.018Z,985.54
2022-10-15T10:13:58.955Z,985.45
2022-10-15T10:14:58.947Z,985.48
2022-10-15T10:15:59.609Z,985.53
2022-10-15T10:16:59.023Z,985.65
2022-10-15T10:17:58.935Z,985.48
2022-10-15T10:18:58.919Z,985.50
2022-10-15T10:19:58.915Z,985.54
2022-10-15T10:20:58.917Z,985.61
2022-10-15T10:21:58.910Z,985.64
2022-10-15T10:22:58.942Z,985.56
2022-10-15T10:23:58.890Z,985.65
2022-10-15T10:24:58.895Z,985.60
2022-10-15T10:25:58.938Z,985.67
2022-10-15T10:26:58.967Z,985.64
2022-10-15T10:27:58.905Z,985.75
2022-10-15T10:29:04.886Z,985.68
2022-10-15T10:30:00.874Z,985.98
2022-10-15T10:30:58.859Z,985.66
2022-10-15T10:31:58.854Z,985.66
2022-10-15T10:32:58.838Z,985.67
2022-10-15T10:33:58.827Z,985.76
2022-10-15T10:34:58.817Z,985.77
2022-10-15T10:35:58.847Z,985.78
2022-10-15T10:36:58.826Z,985.72
2022-10-15T10:37:58.798Z,985.79
2022-10-15T10:38:58.786Z,985.74
2022-10-15T10:39:58.782Z,985.89
2022-10-15T10:40:58.782Z,985.68
2022-10-15T10:41:58.807Z,985.68
2022-10-15T10:42:59.654Z,985.70
2022-10-15T10:43:59.811Z,985.85
2022-10-15T10:44:58.770Z,985.66
2022-10-15T10:45:58.742Z,985.78
2022-10-15T10:46:58.734Z,985.74
2022-10-15T10:47:58.744Z,985.68
2022-10-15T10:48:58.726Z,985.67
2022-10-15T10:49:58.721Z,985.68
2022-10-15T10:50:58.718Z,985.80
2022-10-15T10:51:58.699Z,985.66
2022-10-15T10:52:58.687Z,985.76
2022-10-15T10:53:58.682Z,985.78
2022-10-15T10:54:58.678Z,985.74
2022-10-15T10:55:58.690Z,985.76
2022-10-15T10:56:58.666Z,985.74
2022-10-15T10:57:58.656Z,985.74
2022-10-15T10:58:58.637Z,985.73
2022-10-15T10:59:58.646Z,985.77
2022-10-15T11:00:58.672Z,985.74
2022-10-15T11:01:58.665Z,985.74
2022-10-15T11:02:58.634Z,985.78
2022-10-15T11:03:58.674Z,985.77
2022-10-15T11:04:58.606Z,985.67
2022-10-15T11:05:59.466Z,985.66
2022-10-15T11:06:58.602Z,985.77
2022-10-15T11:07:58.682Z,985.68
2022-10-15T11:08:58.581Z,985.66
2022-10-15T11:09:58.622Z,985.70
2022-10-15T11:10:58.577Z,985.64
2022-10-15T11:11:58.647Z,985.62
2022-10-15T11:12:58.624Z,985.80
2022-10-15T11:13:58.581Z,985.61
2022-10-15T11:14:58.533Z,985.54
2022-10-15T11:15:58.534Z,985.55
2022-10-15T11:16:58.562Z,985.55
2022-10-15T11:17:58.531Z,985.50
2022-10-15T11:18:58.538Z,985.59
2022-10-15T11:21:03.115Z,985.52
2022-10-15T11:22:00.485Z,985.40
2022-10-15T11:22:58.627Z,985.50
2022-10-15T11:23:58.541Z,985.50
2022-10-15T11:25:06.595Z,985.51
2022-10-15T11:26:00.522Z,985.57
2022-10-15T11:27:10.124Z,985.45
2022-10-15T11:28:00.541Z,985.49
2022-10-15T11:28:58.519Z,985.53
2022-10-15T11:29:58.462Z,985.45
2022-10-15T11:30:58.426Z,985.52
2022-10-15T11:32:02.821Z,985.48
2022-10-15T11:33:08.900Z,985.51
2022-10-15T11:34:00.417Z,985.48
2022-10-15T11:34:58.413Z,985.53
2022-10-15T11:35:58.412Z,985.61
2022-10-15T11:36:58.402Z,985.53
2022-10-15T11:37:58.394Z,985.50
2022-10-15T11:38:58.405Z,985.52
2022-10-15T11:39:58.361Z,985.42
2022-10-15T11:40:58.474Z,985.44
2022-10-15T11:41:58.368Z,985.48
2022-10-15T11:42:58.390Z,985.55
2022-10-15T11:43:58.331Z,985.49
2022-10-15T11:44:58.380Z,985.57
2022-10-15T11:45:58.335Z,985.46
2022-10-15T11:46:58.347Z,985.50
2022-10-15T11:47:58.307Z,985.41
2022-10-15T11:48:58.314Z,985.51
2022-10-15T11:49:58.305Z,985.65
2022-10-15T11:50:58.298Z,985.46
2022-10-15T11:51:58.306Z,985.43
2022-10-15T11:52:58.317Z,985.42
2022-10-15T11:53:58.293Z,985.47
2022-10-15T11:54:58.271Z,985.47
2022-10-15T11:55:58.262Z,985.47
2022-10-15T11:56:58.254Z,985.45
2022-10-15T11:57:58.266Z,985.54
2022-10-15T11:59:58.223Z,985.43
2022-10-15T12:00:58.229Z,985.42
2022-10-15T12:01:58.211Z,985.55
2022-10-15T12:02:58.230Z,985.39
2022-10-15T12:03:58.246Z,985.48
2022-10-15T12:04:58.178Z,985.42
2022-10-15T12:05:58.170Z,985.50
2022-10-15T12:06:58.186Z,985.43
2022-10-15T12:07:58.202Z,985.53
2022-10-15T12:08:58.154Z,985.41
2022-10-15T12:09:58.145Z,985.39
2022-10-15T12:10:58.139Z,985.39
2022-10-15T12:12:00.777Z,985.40
2022-10-15T12:12:59.132Z,985.49
2022-10-15T12:13:58.157Z,985.38
2022-10-15T12:14:58.110Z,985.38
2022-10-15T12:15:58.103Z,985.37
2022-10-15T12:16:58.155Z,985.53
2022-10-15T12:17:58.093Z,985.36
2022-10-15T12:18:58.085Z,985.32
2022-10-15T12:19:58.101Z,985.38
2022-10-15T12:20:58.070Z,985.33
2022-10-15T12:21:58.102Z,985.35
2022-10-15T12:22:58.066Z,985.29
2022-10-15T12:23:58.046Z,985.50
2022-10-15T12:24:58.047Z,985.33
2022-10-15T12:25:58.035Z,985.32
2022-10-15T12:26:58.028Z,985.26
2022-10-15T12:27:58.109Z,985.26
2022-10-15T12:29:00.792Z,985.33
2022-10-15T12:29:58.065Z,985.25
2022-10-15T12:30:58.021Z,985.45
2022-10-15T12:31:58.969Z,985.35
2022-10-15T12:32:58.050Z,985.28
2022-10-15T12:33:58.993Z,985.21